createdAt,value
2018-05-09T00:00:06.576Z,95057.23
2018-05-09T00:02:36.428Z,95056.44
2018-05-09T00:05:05.671Z,95058.66
2018-05-09T00:07:35.601Z,95055.98
2018-05-09T00:10:04.678Z,95058.20
2018-05-09T00:12:34.094Z,95057.73
2018-05-09T00:15:04.042Z,95059.56
2018-05-09T00:17:33.587Z,95052.84
2018-05-09T00:20:03.115Z,95065.00
2018-05-09T00:22:33.055Z,95061.30
2018-05-09T00:25:02.579Z,95060.81
2018-05-09T00:27:32.115Z,95056.34
2018-05-09T00:30:01.654Z,95060.00
2018-05-09T00:32:31.871Z,95059.75
2018-05-09T00:35:01.917Z,95062.39
2018-05-09T00:37:31.494Z,95064.36
2018-05-09T00:40:01.414Z,95065.73
2018-05-09T00:42:31.354Z,95067.28
2018-05-09T00:45:00.876Z,95064.04
2018-05-09T00:47:30.421Z,95069.02
2018-05-09T00:49:59.929Z,95067.85
2018-05-09T00:52:29.511Z,95065.07
2018-05-09T00:54:58.879Z,95063.20
2018-05-09T00:57:28.402Z,95070.17
2018-05-09T00:59:58.024Z,95072.77
2018-05-09T01:02:27.814Z,95074.87
2018-05-09T01:04:57.432Z,95071.84
2018-05-09T01:07:26.122Z,95076.52
2018-05-09T01:09:55.656Z,95073.41
2018-05-09T01:12:25.174Z,95072.68
2018-05-09T01:14:56.446Z,95064.61
2018-05-09T01:17:26.454Z,95064.16
2018-05-09T01:19:56.034Z,95058.15
2018-05-09T01:22:25.591Z,95060.72
2018-05-09T01:24:55.512Z,95065.75
2018-05-09T01:27:25.035Z,95067.91
2018-05-09T01:29:54.496Z,95070.89
2018-05-09T01:32:24.218Z,95076.86
2018-05-09T01:34:53.806Z,95086.69
2018-05-09T01:37:23.320Z,95084.14
2018-05-09T01:39:53.326Z,95084.70
2018-05-09T01:42:23.292Z,95083.53
2018-05-09T01:44:52.836Z,95082.68
2018-05-09T01:47:22.381Z,95079.42
2018-05-09T01:49:51.698Z,95073.58
2018-05-09T01:52:21.281Z,95069.63
2018-05-09T01:54:51.938Z,95064.91
2018-05-09T01:57:21.571Z,95066.88
2018-05-09T01:59:51.156Z,95067.03
2018-05-09T02:02:20.672Z,95068.89
2018-05-09T02:04:50.217Z,95078.23
2018-05-09T02:07:19.746Z,95076.59
2018-05-09T02:09:49.454Z,95075.73
2018-05-09T02:12:19.396Z,95070.41
2018-05-09T02:14:48.922Z,95075.76
2018-05-09T02:17:18.220Z,95073.55
2018-05-09T02:19:47.752Z,95079.62
2018-05-09T02:22:17.316Z,95085.27
2018-05-09T02:24:47.142Z,95082.32
2018-05-09T02:27:16.722Z,95085.48
2018-05-09T02:29:46.627Z,95084.78
2018-05-09T02:32:16.543Z,95084.66
2018-05-09T02:34:46.504Z,95083.03
2018-05-09T02:37:16.495Z,95081.15
2018-05-09T02:39:46.034Z,95080.92
2018-05-09T02:42:15.420Z,95078.98
2018-05-09T02:44:44.948Z,95075.28
2018-05-09T02:47:14.463Z,95073.34
2018-05-09T02:49:43.987Z,95073.69
2018-05-09T02:52:13.566Z,95072.81
2018-05-09T02:54:43.094Z,95077.87
2018-05-09T02:57:12.613Z,95067.64
2018-05-09T02:59:42.534Z,95070.30
2018-05-09T03:02:12.238Z,95070.09
2018-05-09T03:04:41.742Z,95062.45
2018-05-09T03:07:11.251Z,95073.73
2018-05-09T03:09:40.797Z,95070.63
2018-05-09T03:12:10.320Z,95080.34
2018-05-09T03:14:39.850Z,95080.70
2018-05-09T03:17:09.425Z,95083.77
2018-05-09T03:19:38.956Z,95078.16
2018-05-09T03:22:08.230Z,95080.72
2018-05-09T03:24:37.747Z,95088.78
2018-05-09T03:27:07.279Z,95080.83
2018-05-09T03:29:36.794Z,95087.80
2018-05-09T03:32:06.322Z,95092.22
2018-05-09T03:34:36.530Z,95095.97
2018-05-09T03:37:06.157Z,95091.42
2018-05-09T03:39:35.672Z,95088.94
2018-05-09T03:42:05.226Z,95089.34
2018-05-09T03:44:34.745Z,95085.23
2018-05-09T03:47:04.273Z,95085.77
2018-05-09T03:49:34.210Z,95089.55
2018-05-09T03:52:03.723Z,95093.78
2018-05-09T03:54:33.537Z,95091.56
2018-05-09T03:57:03.099Z,95094.09
2018-05-09T03:59:33.021Z,95097.16
2018-05-09T04:02:19.883Z,95099.11
2018-05-09T04:05:06.292Z,95089.08
2018-05-09T04:10:51.122Z,95094.83
2018-05-09T04:13:20.831Z,95097.49
2018-05-09T04:15:50.369Z,95095.84
2018-05-09T04:18:19.959Z,95094.55
2018-05-09T04:20:49.538Z,95089.34
2018-05-09T04:23:19.278Z,95096.12
2018-05-09T04:25:49.219Z,95099.33
2018-05-09T04:28:18.807Z,95095.95
2018-05-09T04:30:48.358Z,95090.42
2018-05-09T04:33:17.908Z,95100.78
2018-05-09T04:35:47.863Z,95098.42
2018-05-09T04:38:17.417Z,95092.38
2018-05-09T04:40:46.951Z,95103.72
2018-05-09T04:43:16.466Z,95104.44
2018-05-09T04:45:45.991Z,95096.72
2018-05-09T04:48:15.561Z,95095.53
2018-05-09T04:50:45.237Z,95100.16
2018-05-09T04:53:14.796Z,95097.72
2018-05-09T04:55:44.468Z,95107.08
2018-05-09T04:58:14.066Z,95105.33
2018-05-09T05:00:43.601Z,95102.52
2018-05-09T05:03:12.896Z,95101.47
2018-05-09T05:05:42.835Z,95104.59
2018-05-09T05:08:13.176Z,95112.45
2018-05-09T05:10:43.276Z,95109.69
2018-05-09T05:13:13.673Z,95117.45
2018-05-09T05:15:43.772Z,95120.05
2018-05-09T05:18:14.175Z,95118.68
2018-05-09T05:20:44.294Z,95118.07
2018-05-09T05:23:14.775Z,95122.65
2018-05-09T05:25:44.699Z,95117.84
2018-05-09T05:28:14.812Z,95118.34
2018-05-09T05:30:44.910Z,95124.30
2018-05-09T05:33:14.982Z,95129.66
2018-05-09T05:35:45.149Z,95133.22
2018-05-09T05:38:14.945Z,95129.15
2018-05-09T05:40:44.787Z,95126.76
2018-05-09T05:43:14.971Z,95128.01
2018-05-09T05:45:44.816Z,95130.94
2018-05-09T05:48:14.643Z,95134.22
2018-05-09T05:50:44.756Z,95134.65
2018-05-09T05:53:14.574Z,95135.19
2018-05-09T05:55:44.653Z,95136.11
2018-05-09T05:58:15.487Z,95139.92
2018-05-09T06:00:45.961Z,95146.03
2018-05-09T06:03:16.491Z,95135.23
2018-05-09T06:05:46.576Z,95127.22
2018-05-09T06:08:16.685Z,95131.92
2018-05-09T06:10:47.193Z,95133.45
2018-05-09T06:13:16.940Z,95136.48
2018-05-09T06:15:47.038Z,95138.31
2018-05-09T06:18:17.136Z,95135.95
2018-05-09T06:20:48.477Z,95141.03
2018-05-09T06:23:18.742Z,95143.98
2018-05-09T06:25:49.526Z,95150.39
2018-05-09T06:28:19.592Z,95152.81
2018-05-09T06:30:50.375Z,95151.50
2018-05-09T06:33:20.888Z,95156.14
2018-05-09T06:35:51.020Z,95157.25
2018-05-09T06:38:21.123Z,95147.46
2018-05-09T06:40:51.201Z,95157.32
2018-05-09T06:43:21.675Z,95147.84
2018-05-09T06:45:51.590Z,95157.77
2018-05-09T06:48:21.548Z,95158.60
2018-05-09T06:50:51.067Z,95161.69
2018-05-09T06:53:20.585Z,95160.74
2018-05-09T06:55:50.307Z,95155.79
2018-05-09T06:58:20.272Z,95158.16
2018-05-09T07:00:50.283Z,95160.48
2018-05-09T07:03:20.139Z,95157.59
2018-05-09T07:05:50.615Z,95162.88
2018-05-09T07:08:20.684Z,95163.45
2018-05-09T07:10:51.228Z,95168.11
2018-05-09T07:13:21.375Z,95174.02
2018-05-09T07:15:54.565Z,95172.62
2018-05-09T07:18:24.683Z,95168.66
2018-05-09T07:20:54.783Z,95168.34
2018-05-09T07:23:24.883Z,95169.36
2018-05-09T07:25:55.662Z,95170.50
2018-05-09T07:28:25.615Z,95174.59
2018-05-09T07:30:56.145Z,95172.93
2018-05-09T07:33:26.257Z,95171.11
2018-05-09T07:35:56.409Z,95172.49
2018-05-09T07:38:27.259Z,95174.81
2018-05-09T07:40:57.315Z,95173.05
2018-05-09T07:43:27.411Z,95172.61
2018-05-09T07:45:56.938Z,95169.25
2018-05-09T07:48:27.101Z,95175.98
2018-05-09T07:50:56.652Z,95168.81
2018-05-09T07:53:26.799Z,95166.66
2018-05-09T07:55:56.391Z,95168.65
2018-05-09T07:58:26.281Z,95172.05
2018-05-09T08:00:55.799Z,95168.00
2018-05-09T08:03:25.323Z,95169.83
2018-05-09T08:05:55.327Z,95171.36
2018-05-09T08:08:25.029Z,95178.70
2018-05-09T08:10:54.786Z,95177.40
2018-05-09T08:13:24.600Z,95177.50
2018-05-09T08:15:54.333Z,95178.75
2018-05-09T08:18:23.892Z,95182.39
2018-05-09T08:20:53.618Z,95174.14
2018-05-09T08:23:23.140Z,95179.95
2018-05-09T08:25:52.640Z,95176.42
2018-05-09T08:28:22.420Z,95168.91
2018-05-09T08:30:52.156Z,95170.70
2018-05-09T08:33:21.688Z,95178.13
2018-05-09T08:35:51.227Z,95172.16
2018-05-09T08:38:20.758Z,95175.04
2018-05-09T08:40:50.864Z,95175.50
2018-05-09T08:43:21.028Z,95173.31
2018-05-09T08:45:51.293Z,95166.92
2018-05-09T08:48:21.374Z,95170.95
2018-05-09T08:50:51.461Z,95175.04
2018-05-09T08:53:21.422Z,95172.31
2018-05-09T08:55:50.980Z,95175.48
2018-05-09T08:58:21.100Z,95174.70
2018-05-09T09:00:51.203Z,95167.61
2018-05-09T09:03:21.283Z,95173.16
2018-05-09T09:05:51.845Z,95170.40
2018-05-09T09:08:21.366Z,95172.76
2018-05-09T09:10:51.823Z,95167.43
2018-05-09T09:13:22.107Z,95168.69
2018-05-09T09:15:52.204Z,95167.65
2018-05-09T09:18:22.784Z,95160.98
2018-05-09T09:20:52.981Z,95165.10
2018-05-09T09:23:23.203Z,95169.67
2018-05-09T09:25:53.322Z,95164.22
2018-05-09T09:28:24.284Z,95161.02
2018-05-09T09:30:54.393Z,95160.30
2018-05-09T09:33:24.474Z,95158.51
2018-05-09T09:35:54.946Z,95158.09
2018-05-09T09:38:25.092Z,95153.16
2018-05-09T09:40:55.617Z,95153.00
2018-05-09T09:43:25.732Z,95157.88
2018-05-09T09:45:55.873Z,95158.42
2018-05-09T09:48:26.086Z,95158.31
2018-05-09T09:50:57.427Z,95153.70
2018-05-09T09:53:27.508Z,95150.86
2018-05-09T09:55:57.645Z,95152.75
2018-05-09T09:58:27.791Z,95148.95
2018-05-09T10:00:57.890Z,95145.18
2018-05-09T10:03:27.964Z,95140.03
2018-05-09T10:05:58.465Z,95141.24
2018-05-09T10:08:28.573Z,95132.70
2018-05-09T10:10:58.859Z,95131.27
2018-05-09T10:13:28.986Z,95122.30
2018-05-09T10:15:59.147Z,95128.50
2018-05-09T10:18:29.374Z,95126.72
2018-05-09T10:20:59.451Z,95132.45
2018-05-09T10:23:29.531Z,95127.20
2018-05-09T10:26:00.306Z,95118.84
2018-05-09T10:28:30.641Z,95117.46
2018-05-09T10:31:00.718Z,95114.87
2018-05-09T10:33:31.211Z,95118.53
2018-05-09T10:36:01.327Z,95118.91
2018-05-09T10:38:31.419Z,95118.73
2018-05-09T10:41:01.232Z,95117.14
2018-05-09T10:43:31.416Z,95117.84
2018-05-09T10:46:01.935Z,95114.33
2018-05-09T10:48:31.795Z,95112.26
2018-05-09T10:51:01.676Z,95094.64
2018-05-09T10:53:31.771Z,95101.19
2018-05-09T10:56:01.835Z,95093.08
2018-05-09T10:58:31.912Z,95098.18
2018-05-09T11:01:01.967Z,95098.91
2018-05-09T11:03:32.974Z,95089.02
2018-05-09T11:06:03.134Z,95090.81
2018-05-09T11:08:33.318Z,95089.03
2018-05-09T11:11:03.168Z,95086.28
2018-05-09T11:13:33.068Z,95090.72
2018-05-09T11:16:03.584Z,95093.02
2018-05-09T11:18:33.843Z,95092.50
2018-05-09T11:21:04.500Z,95091.06
2018-05-09T11:23:34.578Z,95093.63
2018-05-09T11:26:04.456Z,95080.43
2018-05-09T11:28:34.598Z,95077.54
2018-05-09T11:31:05.132Z,95072.71
2018-05-09T11:33:35.604Z,95077.08
2018-05-09T11:36:05.704Z,95073.31
2018-05-09T11:38:35.818Z,95064.12
2018-05-09T11:41:06.211Z,95064.11
2018-05-09T11:43:36.453Z,95069.36
2018-05-09T11:46:06.543Z,95061.42
2018-05-09T11:48:36.707Z,95051.31
2018-05-09T11:51:06.829Z,95048.61
2018-05-09T11:53:36.927Z,95058.44
2018-05-09T11:56:07.398Z,95057.44
2018-05-09T11:58:37.470Z,95052.31
2018-05-09T12:01:07.955Z,95056.41
2018-05-09T12:03:38.046Z,95042.80
2018-05-09T12:06:08.125Z,95056.53
2018-05-09T12:08:38.503Z,95048.72
2018-05-09T12:11:08.373Z,95046.60
2018-05-09T12:13:38.851Z,95044.42
2018-05-09T12:16:08.705Z,95041.16
2018-05-09T12:18:38.585Z,95033.26
2018-05-09T12:21:08.716Z,95038.52
2018-05-09T12:23:38.825Z,95049.64
2018-05-09T12:26:08.905Z,95040.13
2018-05-09T12:28:39.402Z,95035.48
2018-05-09T12:31:09.353Z,95030.70
2018-05-09T12:33:39.426Z,95027.72
2018-05-09T12:36:09.495Z,95023.58
2018-05-09T12:38:39.777Z,95013.83
2018-05-09T12:41:09.613Z,95022.80
2018-05-09T12:43:40.112Z,95013.16
2018-05-09T12:46:10.238Z,95025.34
2018-05-09T12:48:40.377Z,95010.77
2018-05-09T12:51:10.581Z,95015.63
2018-05-09T12:53:40.668Z,95008.66
2018-05-09T12:56:10.646Z,95015.91
2018-05-09T12:58:40.835Z,95009.41
2018-05-09T13:01:11.345Z,94998.52
2018-05-09T13:03:41.455Z,95003.59
2018-05-09T13:06:11.567Z,94993.41
2018-05-09T13:08:41.991Z,94994.37
2018-05-09T13:11:12.069Z,94992.20
2018-05-09T13:13:42.583Z,94996.03
2018-05-09T13:16:12.665Z,94984.97
2018-05-09T13:18:42.898Z,95000.83
2018-05-09T13:21:12.975Z,94978.48
2018-05-09T13:23:43.529Z,94976.14
2018-05-09T13:26:14.235Z,94973.29
2018-05-09T13:28:44.501Z,94983.87
2018-05-09T13:31:14.593Z,94973.73
2018-05-09T13:33:44.677Z,94980.67
2018-05-09T13:36:14.805Z,94977.70
2018-05-09T13:38:44.907Z,94965.61
2018-05-09T13:41:14.999Z,94960.11
2018-05-09T13:43:45.101Z,94960.06
2018-05-09T13:46:15.175Z,94956.63
2018-05-09T13:48:45.489Z,94943.25
2018-05-09T13:51:15.576Z,94964.99
2018-05-09T13:53:45.686Z,94960.80
2018-05-09T13:56:15.903Z,94949.64
2018-05-09T13:58:45.992Z,94946.73
2018-05-09T14:01:16.467Z,94943.55
2018-05-09T14:03:46.555Z,94940.01
2018-05-09T14:06:16.809Z,94956.06
2018-05-09T14:08:46.895Z,94945.81
2018-05-09T14:11:17.361Z,94937.30
2018-05-09T14:13:47.449Z,94947.89
2018-05-09T14:16:17.515Z,94948.07
2018-05-09T14:18:47.367Z,94938.38
2018-05-09T14:21:17.867Z,94951.61
2018-05-09T14:23:47.941Z,94942.58
2018-05-09T14:26:17.995Z,94941.00
2018-05-09T14:28:48.057Z,94932.00
2018-05-09T14:31:18.517Z,94942.44
2018-05-09T14:33:48.607Z,94940.19
2018-05-09T14:36:19.088Z,94934.70
2018-05-09T14:38:49.198Z,94940.80
2018-05-09T14:41:19.289Z,94935.45
2018-05-09T14:43:49.382Z,94925.76
2018-05-09T14:46:19.833Z,94925.76
2018-05-09T14:48:49.924Z,94936.14
2018-05-09T14:51:20.437Z,94940.50
2018-05-09T14:53:50.307Z,94942.70
2018-05-09T14:56:20.483Z,94938.53
2018-05-09T14:58:50.615Z,94940.83
2018-05-09T15:01:21.072Z,94941.48
2018-05-09T15:03:50.927Z,94944.34
2018-05-09T15:06:21.011Z,94946.13
2018-05-09T15:08:51.145Z,94949.83
2018-05-09T15:11:21.281Z,94939.68
2018-05-09T15:13:51.383Z,94938.42
2018-05-09T15:16:21.462Z,94935.03
2018-05-09T15:18:51.932Z,94945.20
2018-05-09T15:21:22.124Z,94951.69
2018-05-09T15:23:52.209Z,94949.45
2018-05-09T15:26:22.765Z,94953.78
2018-05-09T15:28:53.015Z,94955.78
2018-05-09T15:31:23.347Z,94954.36
2018-05-09T15:33:53.424Z,94943.41
2018-05-09T15:36:23.900Z,94941.14
2018-05-09T15:38:54.089Z,94941.14
2018-05-09T15:41:24.680Z,94944.05
2018-05-09T15:43:54.837Z,94954.87
2018-05-09T15:46:24.963Z,94956.73
2018-05-09T15:48:55.075Z,94954.22
2018-05-09T15:51:25.566Z,94950.99
2018-05-09T15:53:55.685Z,94957.23
2018-05-09T15:56:25.799Z,94954.11
2018-05-09T15:58:55.917Z,94962.40
2018-05-09T16:01:26.895Z,94965.78
2018-05-09T16:03:57.399Z,94968.24
2018-05-09T16:06:27.475Z,94966.43
2018-05-09T16:08:57.568Z,94961.36
2018-05-09T16:11:28.080Z,94956.19
2018-05-09T16:13:58.204Z,94957.51
2018-05-09T16:16:28.659Z,94947.41
2018-05-09T16:25:47.308Z,94946.89
2018-05-09T16:28:18.786Z,94952.00
2018-05-09T16:30:48.912Z,94954.61
2018-05-09T16:33:19.416Z,94957.09
2018-05-09T16:35:50.116Z,94963.02
2018-05-09T16:38:20.606Z,94965.41
2018-05-09T16:40:51.110Z,94967.22
2018-05-09T16:43:22.454Z,94971.22
2018-05-09T16:45:52.964Z,94978.66
2018-05-09T16:48:23.035Z,94983.32
2018-05-09T16:50:53.496Z,94992.28
2018-05-09T16:53:23.600Z,94991.87
2018-05-09T16:55:54.241Z,94999.17
2018-05-09T16:58:24.345Z,95001.52
2018-05-09T17:00:55.547Z,94997.59
2018-05-09T17:03:25.701Z,94991.70
2018-05-09T17:05:55.943Z,95004.22
2018-05-09T17:08:26.809Z,94998.09
2018-05-09T17:10:57.011Z,95000.01
2018-05-09T17:13:27.546Z,94998.33
2018-05-09T17:15:57.481Z,94994.24
2018-05-09T17:18:27.044Z,94996.30
2018-05-09T17:20:56.785Z,94997.67
2018-05-09T17:23:26.734Z,94995.95
2018-05-09T17:25:56.276Z,94993.29
2018-05-09T17:28:25.814Z,94995.62
2018-05-09T17:30:56.012Z,94996.67
2018-05-09T17:33:25.535Z,95000.77
2018-05-09T17:35:55.802Z,95000.93
2018-05-09T17:38:25.328Z,95003.31
2018-05-09T17:40:54.879Z,95006.92
2018-05-09T17:43:25.084Z,95007.97
2018-05-09T17:45:55.044Z,95005.69
2018-05-09T17:48:24.651Z,95015.89
2018-05-09T17:50:55.822Z,95016.87
2018-05-09T17:53:25.359Z,95020.19
2018-05-09T17:55:54.920Z,95024.89
2018-05-09T17:58:24.520Z,95027.30
2018-05-09T18:00:54.041Z,95029.41
2018-05-09T18:03:23.940Z,95024.95
2018-05-09T18:05:53.892Z,95026.86
2018-05-09T18:08:24.179Z,95027.12
2018-05-09T18:10:53.714Z,95030.69
2018-05-09T18:13:23.259Z,95033.94
2018-05-09T18:15:53.193Z,95040.98
2018-05-09T18:18:23.423Z,95037.45
2018-05-09T18:20:53.564Z,95037.31
2018-05-09T18:23:23.924Z,95035.03
2018-05-09T18:25:53.499Z,95031.20
2018-05-09T18:28:23.033Z,95027.55
2018-05-09T18:30:52.573Z,95022.62
2018-05-09T18:33:22.503Z,95019.79
2018-05-09T18:35:52.096Z,95019.42
2018-05-09T18:38:22.247Z,95016.91
2018-05-09T18:40:51.777Z,95019.60
2018-05-09T18:43:21.283Z,95026.27
2018-05-09T18:45:50.824Z,95027.33
2018-05-09T18:48:21.553Z,95034.47
2018-05-09T18:50:51.481Z,95038.91
2018-05-09T18:53:21.449Z,95034.52
2018-05-09T18:55:51.187Z,95043.19
2018-05-09T18:58:20.713Z,95036.22
2018-05-09T19:00:50.401Z,95041.73
2018-05-09T19:03:19.982Z,95045.27
2018-05-09T19:05:49.556Z,95049.75
2018-05-09T19:08:19.309Z,95053.67
2018-05-09T19:10:48.875Z,95056.48
2018-05-09T19:13:18.419Z,95049.21
2018-05-09T19:15:48.303Z,95058.45
2018-05-09T19:18:19.104Z,95057.20
2018-05-09T19:20:48.553Z,95058.36
2018-05-09T19:23:18.167Z,95054.62
2018-05-09T19:25:48.047Z,95056.48
2018-05-09T19:28:17.669Z,95054.27
2018-05-09T19:30:46.906Z,95054.86
2018-05-09T19:33:16.474Z,95051.03
2018-05-09T19:35:46.015Z,95052.80
2018-05-09T19:38:15.554Z,95051.77
2018-05-09T19:40:45.506Z,95057.75
2018-05-09T19:43:15.631Z,95051.89
2018-05-09T19:45:45.234Z,95045.13
2018-05-09T19:48:14.580Z,95059.23
2018-05-09T19:50:43.918Z,95063.22
2018-05-09T19:53:13.951Z,95065.22
2018-05-09T19:55:43.623Z,95068.75
2018-05-09T19:58:13.598Z,95075.55
2018-05-09T20:00:43.137Z,95069.34
2018-05-09T20:03:12.670Z,95069.98
2018-05-09T20:05:42.625Z,95074.15
2018-05-09T20:08:12.265Z,95077.85
2018-05-09T20:10:41.846Z,95073.71
2018-05-09T20:13:11.819Z,95072.61
2018-05-09T20:15:41.856Z,95070.34
2018-05-09T20:18:11.754Z,95082.65
2018-05-09T20:20:41.784Z,95093.45
2018-05-09T20:23:11.336Z,95086.67
2018-05-09T20:25:40.880Z,95091.16
2018-05-09T20:28:10.900Z,95090.48
2018-05-09T20:30:46.233Z,95097.50
2018-05-09T20:33:16.255Z,95104.80
2018-05-09T20:35:46.203Z,95103.94
2018-05-09T20:38:15.749Z,95109.02
2018-05-09T20:40:45.279Z,95102.01
2018-05-09T20:43:15.230Z,95097.47
2018-05-09T20:45:44.747Z,95098.67
2018-05-09T20:48:14.291Z,95107.70
2018-05-09T20:50:43.834Z,95108.97
2018-05-09T20:53:13.448Z,95116.30
2018-05-09T20:55:43.175Z,95116.34
2018-05-09T20:58:12.697Z,95117.48
2018-05-09T21:00:42.290Z,95108.36
2018-05-09T21:03:11.513Z,95106.67
2018-05-09T21:05:40.721Z,95114.87
2018-05-09T21:08:10.275Z,95120.35
2018-05-09T21:10:39.823Z,95128.08
2018-05-09T21:13:09.442Z,95134.95
2018-05-09T21:15:39.057Z,95140.27
2018-05-09T21:18:09.328Z,95144.49
2018-05-09T21:20:47.357Z,95145.45
2018-05-09T21:23:25.261Z,95140.52
2018-05-09T21:25:55.993Z,95138.23
2018-05-09T21:28:25.609Z,95139.46
2018-05-09T21:30:55.299Z,95142.81
2018-05-09T21:33:24.903Z,95141.36
2018-05-09T21:35:56.212Z,95135.72
2018-05-09T21:38:25.850Z,95126.28
2018-05-09T21:40:55.920Z,95125.70
2018-05-09T21:43:26.326Z,95125.40
2018-05-09T21:45:55.563Z,95132.08
2018-05-09T21:48:25.500Z,95122.56
2018-05-09T21:50:55.404Z,95123.06
2018-05-09T21:53:25.377Z,95120.28
2018-05-09T21:55:55.017Z,95126.23
2018-05-09T21:58:25.058Z,95123.50
2018-05-09T22:00:54.834Z,95125.55
2018-05-09T22:03:24.370Z,95117.95
2018-05-09T22:05:54.304Z,95117.61
2018-05-09T22:08:23.856Z,95117.84
2018-05-09T22:10:53.402Z,95114.78
2018-05-09T22:13:22.894Z,95121.23
2018-05-09T22:15:52.608Z,95122.77
2018-05-09T22:18:22.540Z,95119.75
2018-05-09T22:20:52.070Z,95119.00
2018-05-09T22:23:21.630Z,95118.72
2018-05-09T22:25:51.544Z,95115.37
2018-05-09T22:28:21.474Z,95119.04
2018-05-09T22:30:51.522Z,95118.91
2018-05-09T22:33:21.163Z,95108.06
2018-05-09T22:35:51.026Z,95103.88
2018-05-09T22:38:20.598Z,95101.38
2018-05-09T22:40:50.306Z,95108.84
2018-05-09T22:43:19.914Z,95111.27
2018-05-09T22:45:49.480Z,95101.38
2018-05-09T22:48:19.018Z,95101.95
2018-05-09T22:50:48.532Z,95101.88
2018-05-09T22:53:18.072Z,95098.19
2018-05-09T22:55:47.626Z,95098.70
2018-05-09T22:58:17.172Z,95091.84
2018-05-09T23:00:47.098Z,95092.66
2018-05-09T23:03:16.791Z,95082.63
2018-05-09T23:05:46.762Z,95084.63
2018-05-09T23:08:16.337Z,95091.84
2018-05-09T23:10:45.874Z,95088.88
2018-05-09T23:13:15.379Z,95087.43
2018-05-09T23:15:44.924Z,95087.25
2018-05-09T23:18:14.554Z,95086.09
2018-05-09T23:20:44.504Z,95082.99
2018-05-09T23:23:14.024Z,95086.70
2018-05-09T23:25:43.556Z,95087.09
2018-05-09T23:28:13.090Z,95090.39
2018-05-09T23:30:43.028Z,95084.95
2018-05-09T23:33:12.594Z,95082.78
2018-05-09T23:35:42.513Z,95092.77
2018-05-09T23:38:12.497Z,95089.28
2018-05-09T23:40:42.107Z,95091.66
2018-05-09T23:43:11.734Z,95098.70
2018-05-09T23:45:41.936Z,95102.63
2018-05-09T23:48:11.250Z,95101.83
2018-05-09T23:50:40.572Z,95101.34
2018-05-09T23:53:10.210Z,95099.80
2018-05-09T23:55:39.787Z,95096.59
2018-05-09T23:58:09.550Z,95093.30
